sensor_id;sensor_type;location;lat;lon;timestamp;temperature;humidity
5286;DHT22;2665;53.112;7.358;2022-08-27T13:43:45;27.30;1.00
5286;DHT22;2665;53.112;7.358;2022-08-27T13:46:23;27.50;1.00
5286;DHT22;2665;53.112;7.358;2022-08-27T13:48:53;28.00;1.00
5286;DHT22;2665;53.112;7.358;2022-08-27T13:51:28;27.20;1.00
5286;DHT22;2665;53.112;7.358;2022-08-27T13:53:55;26.30;1.00
5286;DHT22;2665;53.112;7.358;2022-08-27T13:59:13;24.90;1.00
5286;DHT22;2665;53.112;7.358;2022-08-27T14:01:53;24.90;1.00
5286;DHT22;2665;53.112;7.358;2022-08-27T14:06:48;25.50;1.00
5286;DHT22;2665;53.112;7.358;2022-08-27T14:09:26;25.50;1.00
5286;DHT22;2665;53.112;7.358;2022-08-27T14:12:04;26.90;1.00
5286;DHT22;2665;53.112;7.358;2022-08-27T14:14:36;27.80;1.00
5286;DHT22;2665;53.112;7.358;2022-08-27T14:17:04;28.60;1.00
5286;DHT22;2665;53.112;7.358;2022-08-27T14:19:32;29.40;1.00
5286;DHT22;2665;53.112;7.358;2022-08-27T14:21:58;29.40;1.00
5286;DHT22;2665;53.112;7.358;2022-08-27T14:24:25;28.60;1.00
5286;DHT22;2665;53.112;7.358;2022-08-27T14:26:54;28.30;1.00
5286;DHT22;2665;53.112;7.358;2022-08-27T14:29:20;28.60;1.00
5286;DHT22;2665;53.112;7.358;2022-08-27T14:31:46;28.30;1.00
5286;DHT22;2665;53.112;7.358;2022-08-27T14:34:12;27.30;1.00
5286;DHT22;2665;53.112;7.358;2022-08-27T14:36:40;26.30;1.00
5286;DHT22;2665;53.112;7.358;2022-08-27T14:39:07;25.50;1.00
5286;DHT22;2665;53.112;7.358;2022-08-27T14:41:33;24.80;1.00
5286;DHT22;2665;53.112;7.358;2022-08-27T14:43:59;24.50;1.00
5286;DHT22;2665;53.112;7.358;2022-08-27T14:46:27;24.20;1.00
5286;DHT22;2665;53.112;7.358;2022-08-27T14:48:55;23.70;1.00
5286;DHT22;2665;53.112;7.358;2022-08-27T14:51:26;23.50;1.00
5286;DHT22;2665;53.112;7.358;2022-08-27T14:53:53;24.40;1.00
5286;DHT22;2665;53.112;7.358;2022-08-27T14:56:20;24.50;1.00
5286;DHT22;2665;53.112;7.358;2022-08-27T14:58:47;26.00;1.00
5286;DHT22;2665;53.112;7.358;2022-08-27T15:01:13;27.00;1.00
5286;DHT22;2665;53.112;7.358;2022-08-27T15:03:44;27.20;1.00
5286;DHT22;2665;53.112;7.358;2022-08-27T15:06:12;27.30;1.00
5286;DHT22;2665;53.112;7.358;2022-08-27T15:08:37;26.70;1.00
5286;DHT22;2665;53.112;7.358;2022-08-27T15:11:03;25.80;1.00
5286;DHT22;2665;53.112;7.358;2022-08-27T15:13:29;24.90;1.00
5286;DHT22;2665;53.112;7.358;2022-08-27T15:15:55;25.30;1.00
5286;DHT22;2665;53.112;7.358;2022-08-27T15:18:21;26.50;1.00
5286;DHT22;2665;53.112;7.358;2022-08-27T15:20:47;26.30;1.00
5286;DHT22;2665;53.112;7.358;2022-08-27T15:23:13;25.60;1.00
5286;DHT22;2665;53.112;7.358;2022-08-27T15:25:40;25.00;1.00
5286;DHT22;2665;53.112;7.358;2022-08-27T15:28:06;24.60;1.00
5286;DHT22;2665;53.112;7.358;2022-08-27T15:30:32;24.30;1.00
5286;DHT22;2665;53.112;7.358;2022-08-27T15:32:58;25.30;1.00
5286;DHT22;2665;53.112;7.358;2022-08-27T15:35:25;26.20;1.00
5286;DHT22;2665;53.112;7.358;2022-08-27T15:37:53;27.00;1.00
5286;DHT22;2665;53.112;7.358;2022-08-27T15:40:20;27.70;1.00
5286;DHT22;2665;53.112;7.358;2022-08-27T15:45:15;27.10;1.00
5286;DHT22;2665;53.112;7.358;2022-08-27T15:47:41;25.90;1.00
